sensor_id;sensor_type;location;lat;lon;timestamp;temperature;humidity
39519;DHT22;25200;53.394;10.414;2023-12-20T00:01:00;7.60;96.10
39519;DHT22;25200;53.394;10.414;2023-12-20T00:03:25;7.60;96.00
39519;DHT22;25200;53.394;10.414;2023-12-20T00:05:51;7.50;96.00
39519;DHT22;25200;53.394;10.414;2023-12-20T00:08:17;7.50;96.10
39519;DHT22;25200;53.394;10.414;2023-12-20T00:10:43;7.50;96.00
39519;DHT22;25200;53.394;10.414;2023-12-20T00:13:09;7.50;96.20
39519;DHT22;25200;53.394;10.414;2023-12-20T00:15:35;7.40;95.90
39519;DHT22;25200;53.394;10.414;2023-12-20T00:18:01;7.40;96.00
39519;DHT22;25200;53.394;10.414;2023-12-20T00:20:27;7.30;96.00
39519;DHT22;25200;53.394;10.414;2023-12-20T00:22:58;7.20;96.00
39519;DHT22;25200;53.394;10.414;2023-12-20T00:25:24;7.20;96.00
39519;DHT22;25200;53.394;10.414;2023-12-20T00:27:50;7.20;96.00
39519;DHT22;25200;53.394;10.414;2023-12-20T00:30:16;7.10;96.00
39519;DHT22;25200;53.394;10.414;2023-12-20T00:32:41;7.10;96.00
39519;DHT22;25200;53.394;10.414;2023-12-20T00:35:12;7.10;96.00
39519;DHT22;25200;53.394;10.414;2023-12-20T00:37:38;7.00;96.00
39519;DHT22;25200;53.394;10.414;2023-12-20T00:40:04;7.00;96.00
39519;DHT22;25200;53.394;10.414;2023-12-20T00:42:30;7.00;96.00
39519;DHT22;25200;53.394;10.414;2023-12-20T00:44:56;6.90;96.10
39519;DHT22;25200;53.394;10.414;2023-12-20T00:47:21;6.90;96.00
39519;DHT22;25200;53.394;10.414;2023-12-20T00:49:48;6.90;96.00
39519;DHT22;25200;53.394;10.414;2023-12-20T00:52:15;6.90;96.00
39519;DHT22;25200;53.394;10.414;2023-12-20T00:54:43;6.90;96.00
39519;DHT22;25200;53.394;10.414;2023-12-20T00:57:09;6.80;96.10
39519;DHT22;25200;53.394;10.414;2023-12-20T00:59:36;6.80;96.00
39519;DHT22;25200;53.394;10.414;2023-12-20T01:02:02;6.80;96.00
39519;DHT22;25200;53.394;10.414;2023-12-20T01:04:28;6.80;96.10
39519;DHT22;25200;53.394;10.414;2023-12-20T01:06:54;6.70;96.00
39519;DHT22;25200;53.394;10.414;2023-12-20T01:09:20;6.80;96.10
39519;DHT22;25200;53.394;10.414;2023-12-20T01:11:49;6.80;96.10
39519;DHT22;25200;53.394;10.414;2023-12-20T01:14:17;6.80;96.20
39519;DHT22;25200;53.394;10.414;2023-12-20T01:16:45;6.80;96.20
39519;DHT22;25200;53.394;10.414;2023-12-20T01:19:12;6.80;96.20
39519;DHT22;25200;53.394;10.414;2023-12-20T01:21:42;6.80;96.20
39519;DHT22;25200;53.394;10.414;2023-12-20T01:24:08;6.80;96.20
39519;DHT22;25200;53.394;10.414;2023-12-20T01:26:34;6.90;96.20
39519;DHT22;25200;53.394;10.414;2023-12-20T01:29:00;6.90;96.20
39519;DHT22;25200;53.394;10.414;2023-12-20T01:31:26;6.90;96.20
39519;DHT22;25200;53.394;10.414;2023-12-20T01:33:52;6.90;96.10
39519;DHT22;25200;53.394;10.414;2023-12-20T01:36:18;6.90;96.10
39519;DHT22;25200;53.394;10.414;2023-12-20T01:38:45;6.90;96.10
39519;DHT22;25200;53.394;10.414;2023-12-20T01:41:10;6.90;96.10
39519;DHT22;25200;53.394;10.414;2023-12-20T01:43:36;7.00;96.10
39519;DHT22;25200;53.394;10.414;2023-12-20T01:46:02;7.00;96.10
39519;DHT22;25200;53.394;10.414;2023-12-20T01:48:29;7.00;96.10
39519;DHT22;25200;53.394;10.414;2023-12-20T01:50:58;6.90;96.10
39519;DHT22;25200;53.394;10.414;2023-12-20T01:53:25;6.90;96.00
39519;DHT22;25200;53.394;10.414;2023-12-20T01:55:54;6.90;96.00
39519;DHT22;25200;53.394;10.414;2023-12-20T01:58:21;6.90;96.00
39519;DHT22;25200;53.394;10.414;2023-12-20T02:00:48;6.90;96.00
39519;DHT22;25200;53.394;10.414;2023-12-20T02:03:14;6.80;95.90
39519;DHT22;25200;53.394;10.414;2023-12-20T02:05:40;6.80;95.90
39519;DHT22;25200;53.394;10.414;2023-12-20T02:08:06;6.80;95.90
39519;DHT22;25200;53.394;10.414;2023-12-20T02:10:32;6.70;95.90
39519;DHT22;25200;53.394;10.414;2023-12-20T02:12:58;6.70;95.90
39519;DHT22;25200;53.394;10.414;2023-12-20T02:15:24;6.70;95.90
39519;DHT22;25200;53.394;10.414;2023-12-20T02:17:50;6.60;95.90
39519;DHT22;25200;53.394;10.414;2023-12-20T02:20:16;6.70;95.90
39519;DHT22;25200;53.394;10.414;2023-12-20T02:22:41;6.60;95.90
39519;DHT22;25200;53.394;10.414;2023-12-20T02:25:07;6.60;95.90
39519;DHT22;25200;53.394;10.414;2023-12-20T02:27:34;6.60;96.10
39519;DHT22;25200;53.394;10.414;2023-12-20T02:30:00;6.60;96.00
39519;DHT22;25200;53.394;10.414;2023-12-20T02:32:26;6.60;96.10
39519;DHT22;25200;53.394;10.414;2023-12-20T02:34:52;6.60;96.10
39519;DHT22;25200;53.394;10.414;2023-12-20T02:37:17;6.60;96.10
39519;DHT22;25200;53.394;10.414;2023-12-20T02:39:43;6.60;96.10
39519;DHT22;25200;53.394;10.414;2023-12-20T02:42:08;6.60;96.00
39519;DHT22;25200;53.394;10.414;2023-12-20T02:44:34;6.60;96.00
39519;DHT22;25200;53.394;10.414;2023-12-20T02:47:00;6.60;96.00
39519;DHT22;25200;53.394;10.414;2023-12-20T02:49:25;6.60;96.00
39519;DHT22;25200;53.394;10.414;2023-12-20T02:51:51;6.60;95.90
39519;DHT22;25200;53.394;10.414;2023-12-20T02:54:17;6.50;95.90
39519;DHT22;25200;53.394;10.414;2023-12-20T02:56:42;6.50;95.90
39519;DHT22;25200;53.394;10.414;2023-12-20T02:59:08;6.50;96.00
39519;DHT22;25200;53.394;10.414;2023-12-20T03:01:34;6.50;96.00
39519;DHT22;25200;53.394;10.414;2023-12-20T03:04:01;6.50;96.00
39519;DHT22;25200;53.394;10.414;2023-12-20T03:06:26;6.60;96.00
39519;DHT22;25200;53.394;10.414;2023-12-20T03:08:52;6.60;96.00
39519;DHT22;25200;53.394;10.414;2023-12-20T03:11:18;6.60;96.10
39519;DHT22;25200;53.394;10.414;2023-12-20T03:13:43;6.60;96.10
39519;DHT22;25200;53.394;10.414;2023-12-20T03:16:10;6.50;96.10
39519;DHT22;25200;53.394;10.414;2023-12-20T03:18:36;6.50;96.00
39519;DHT22;25200;53.394;10.414;2023-12-20T03:21:01;6.60;96.00
39519;DHT22;25200;53.394;10.414;2023-12-20T03:23:27;6.50;95.90
39519;DHT22;25200;53.394;10.414;2023-12-20T03:25:53;6.50;96.00
39519;DHT22;25200;53.394;10.414;2023-12-20T03:28:18;6.50;95.90
39519;DHT22;25200;53.394;10.414;2023-12-20T03:30:44;6.40;95.90
39519;DHT22;25200;53.394;10.414;2023-12-20T03:33:10;6.40;95.90
39519;DHT22;25200;53.394;10.414;2023-12-20T03:35:39;6.40;96.00
39519;DHT22;25200;53.394;10.414;2023-12-20T03:38:04;6.40;95.90
39519;DHT22;25200;53.394;10.414;2023-12-20T03:40:30;6.40;95.90
39519;DHT22;25200;53.394;10.414;2023-12-20T03:42:56;6.40;95.90
39519;DHT22;25200;53.394;10.414;2023-12-20T03:45:21;6.40;96.00
39519;DHT22;25200;53.394;10.414;2023-12-20T03:47:47;6.40;96.00
39519;DHT22;25200;53.394;10.414;2023-12-20T03:50:14;6.40;96.00
39519;DHT22;25200;53.394;10.414;2023-12-20T03:52:39;6.40;96.00
39519;DHT22;25200;53.394;10.414;2023-12-20T03:55:05;6.40;96.00
39519;DHT22;25200;53.394;10.414;2023-12-20T03:57:31;6.40;96.10
39519;DHT22;25200;53.394;10.414;2023-12-20T03:59:57;6.50;96.10
39519;DHT22;25200;53.394;10.414;2023-12-20T04:02:22;6.50;96.10
39519;DHT22;25200;53.394;10.414;2023-12-20T04:04:48;6.50;96.00
39519;DHT22;25200;53.394;10.414;2023-12-20T04:07:14;6.50;96.00
39519;DHT22;25200;53.394;10.414;2023-12-20T04:09:41;6.50;96.00
39519;DHT22;25200;53.394;10.414;2023-12-20T04:12:06;6.50;96.00
39519;DHT22;25200;53.394;10.414;2023-12-20T04:14:32;6.50;96.00
39519;DHT22;25200;53.394;10.414;2023-12-20T04:16:58;6.50;96.00
39519;DHT22;25200;53.394;10.414;2023-12-20T04:19:24;6.50;96.00
39519;DHT22;25200;53.394;10.414;2023-12-20T04:21:49;6.50;96.00
39519;DHT22;25200;53.394;10.414;2023-12-20T04:24:15;6.60;96.00
39519;DHT22;25200;53.394;10.414;2023-12-20T04:26:40;6.50;95.90
39519;DHT22;25200;53.394;10.414;2023-12-20T04:29:06;6.60;96.00
39519;DHT22;25200;53.394;10.414;2023-12-20T04:31:32;6.60;96.00
39519;DHT22;25200;53.394;10.414;2023-12-20T04:33:57;6.60;96.00
39519;DHT22;25200;53.394;10.414;2023-12-20T04:36:23;6.60;95.90
39519;DHT22;25200;53.394;10.414;2023-12-20T04:38:50;6.60;95.90
39519;DHT22;25200;53.394;10.414;2023-12-20T04:41:16;6.60;95.90
39519;DHT22;25200;53.394;10.414;2023-12-20T04:43:44;6.60;95.90
39519;DHT22;25200;53.394;10.414;2023-12-20T04:46:10;6.60;95.90
39519;DHT22;25200;53.394;10.414;2023-12-20T04:48:35;6.60;96.00
39519;DHT22;25200;53.394;10.414;2023-12-20T04:51:01;6.60;95.90
39519;DHT22;25200;53.394;10.414;2023-12-20T04:53:27;6.60;95.90
39519;DHT22;25200;53.394;10.414;2023-12-20T04:55:53;6.60;95.90
39519;DHT22;25200;53.394;10.414;2023-12-20T04:58:19;6.60;95.90
39519;DHT22;25200;53.394;10.414;2023-12-20T05:00:44;6.60;95.90
39519;DHT22;25200;53.394;10.414;2023-12-20T05:03:10;6.60;95.90
39519;DHT22;25200;53.394;10.414;2023-12-20T05:05:36;6.60;95.90
39519;DHT22;25200;53.394;10.414;2023-12-20T05:08:01;6.60;95.90
39519;DHT22;25200;53.394;10.414;2023-12-20T05:10:27;6.60;95.90
39519;DHT22;25200;53.394;10.414;2023-12-20T05:12:53;6.60;95.90
39519;DHT22;25200;53.394;10.414;2023-12-20T05:15:19;6.70;95.90
39519;DHT22;25200;53.394;10.414;2023-12-20T05:17:44;6.70;95.90
39519;DHT22;25200;53.394;10.414;2023-12-20T05:20:10;6.70;95.90
39519;DHT22;25200;53.394;10.414;2023-12-20T05:22:36;6.70;95.90
39519;DHT22;25200;53.394;10.414;2023-12-20T05:25:01;6.70;96.10
39519;DHT22;25200;53.394;10.414;2023-12-20T05:27:27;6.70;95.90
39519;DHT22;25200;53.394;10.414;2023-12-20T05:29:53;6.70;95.90
39519;DHT22;25200;53.394;10.414;2023-12-20T05:32:23;6.70;95.90
39519;DHT22;25200;53.394;10.414;2023-12-20T05:34:48;6.70;95.90
39519;DHT22;25200;53.394;10.414;2023-12-20T05:37:14;6.70;95.90
39519;DHT22;25200;53.394;10.414;2023-12-20T05:39:40;6.70;95.90
39519;DHT22;25200;53.394;10.414;2023-12-20T05:42:05;6.70;95.90
39519;DHT22;25200;53.394;10.414;2023-12-20T05:44:31;6.70;95.90
39519;DHT22;25200;53.394;10.414;2023-12-20T05:46:57;6.70;95.90
39519;DHT22;25200;53.394;10.414;2023-12-20T05:49:22;6.80;95.90
39519;DHT22;25200;53.394;10.414;2023-12-20T05:51:48;6.70;95.90
39519;DHT22;25200;53.394;10.414;2023-12-20T05:54:16;6.70;95.90
39519;DHT22;25200;53.394;10.414;2023-12-20T05:56:41;6.70;95.90
39519;DHT22;25200;53.394;10.414;2023-12-20T05:59:07;6.70;95.90
39519;DHT22;25200;53.394;10.414;2023-12-20T06:01:33;6.80;95.90
39519;DHT22;25200;53.394;10.414;2023-12-20T06:03:58;6.70;95.90
39519;DHT22;25200;53.394;10.414;2023-12-20T06:06:24;6.70;95.90
39519;DHT22;25200;53.394;10.414;2023-12-20T06:08:49;6.80;95.90
39519;DHT22;25200;53.394;10.414;2023-12-20T06:11:15;6.80;95.90
39519;DHT22;25200;53.394;10.414;2023-12-20T06:13:41;6.80;95.90
39519;DHT22;25200;53.394;10.414;2023-12-20T06:16:07;6.80;95.90
39519;DHT22;25200;53.394;10.414;2023-12-20T06:18:32;6.80;95.90
39519;DHT22;25200;53.394;10.414;2023-12-20T06:20:58;6.80;95.90
39519;DHT22;25200;53.394;10.414;2023-12-20T06:23:24;6.80;95.90
39519;DHT22;25200;53.394;10.414;2023-12-20T06:25:49;6.80;96.00
39519;DHT22;25200;53.394;10.414;2023-12-20T06:28:15;6.80;95.90
39519;DHT22;25200;53.394;10.414;2023-12-20T06:30:41;6.80;96.00
39519;DHT22;25200;53.394;10.414;2023-12-20T06:33:06;6.80;95.90
39519;DHT22;25200;53.394;10.414;2023-12-20T06:35:32;6.80;95.90
39519;DHT22;25200;53.394;10.414;2023-12-20T06:37:58;6.80;95.90
39519;DHT22;25200;53.394;10.414;2023-12-20T06:40:23;6.80;95.80
39519;DHT22;25200;53.394;10.414;2023-12-20T06:42:49;6.80;95.90
39519;DHT22;25200;53.394;10.414;2023-12-20T06:45:15;6.80;95.90
39519;DHT22;25200;53.394;10.414;2023-12-20T06:47:41;6.80;95.90
39519;DHT22;25200;53.394;10.414;2023-12-20T06:50:06;6.70;95.90
39519;DHT22;25200;53.394;10.414;2023-12-20T06:52:34;6.70;95.90
39519;DHT22;25200;53.394;10.414;2023-12-20T06:55:01;6.80;95.90
39519;DHT22;25200;53.394;10.414;2023-12-20T06:57:26;6.80;95.90
39519;DHT22;25200;53.394;10.414;2023-12-20T06:59:53;6.70;95.90
39519;DHT22;25200;53.394;10.414;2023-12-20T07:02:18;6.80;95.90
39519;DHT22;25200;53.394;10.414;2023-12-20T07:04:44;6.70;95.90
39519;DHT22;25200;53.394;10.414;2023-12-20T07:07:09;6.80;95.90
39519;DHT22;25200;53.394;10.414;2023-12-20T07:09:35;6.80;95.90
39519;DHT22;25200;53.394;10.414;2023-12-20T07:12:01;6.80;95.90
39519;DHT22;25200;53.394;10.414;2023-12-20T07:14:27;6.80;95.90
39519;DHT22;25200;53.394;10.414;2023-12-20T07:16:54;6.80;95.90
39519;DHT22;25200;53.394;10.414;2023-12-20T07:19:20;6.80;95.90
39519;DHT22;25200;53.394;10.414;2023-12-20T07:21:45;6.80;95.90
39519;DHT22;25200;53.394;10.414;2023-12-20T07:24:11;6.80;95.90
39519;DHT22;25200;53.394;10.414;2023-12-20T07:26:37;6.80;95.90
39519;DHT22;25200;53.394;10.414;2023-12-20T07:29:04;6.80;95.90
39519;DHT22;25200;53.394;10.414;2023-12-20T07:31:29;6.80;95.90
39519;DHT22;25200;53.394;10.414;2023-12-20T07:33:56;6.80;95.80
39519;DHT22;25200;53.394;10.414;2023-12-20T07:36:21;6.80;95.90
39519;DHT22;25200;53.394;10.414;2023-12-20T07:38:47;6.80;95.90
39519;DHT22;25200;53.394;10.414;2023-12-20T07:41:13;6.80;95.90
39519;DHT22;25200;53.394;10.414;2023-12-20T07:43:39;6.80;95.90
39519;DHT22;25200;53.394;10.414;2023-12-20T07:46:08;6.80;95.80
39519;DHT22;25200;53.394;10.414;2023-12-20T07:48:37;6.80;95.90
39519;DHT22;25200;53.394;10.414;2023-12-20T07:51:06;6.80;95.90
39519;DHT22;25200;53.394;10.414;2023-12-20T07:53:34;6.80;95.90
39519;DHT22;25200;53.394;10.414;2023-12-20T07:56:00;6.80;95.90
39519;DHT22;25200;53.394;10.414;2023-12-20T07:58:26;6.80;95.90
39519;DHT22;25200;53.394;10.414;2023-12-20T08:00:51;6.80;95.80
39519;DHT22;25200;53.394;10.414;2023-12-20T08:03:17;6.90;95.90
39519;DHT22;25200;53.394;10.414;2023-12-20T08:05:42;6.80;95.80
39519;DHT22;25200;53.394;10.414;2023-12-20T08:08:08;6.90;95.90
39519;DHT22;25200;53.394;10.414;2023-12-20T08:10:34;6.90;95.90
39519;DHT22;25200;53.394;10.414;2023-12-20T08:12:59;6.90;95.90
39519;DHT22;25200;53.394;10.414;2023-12-20T08:15:25;6.90;95.90
39519;DHT22;25200;53.394;10.414;2023-12-20T08:17:51;6.90;95.90
39519;DHT22;25200;53.394;10.414;2023-12-20T08:20:17;6.90;95.90
39519;DHT22;25200;53.394;10.414;2023-12-20T08:22:42;6.90;95.90
39519;DHT22;25200;53.394;10.414;2023-12-20T08:25:08;6.90;95.90
39519;DHT22;25200;53.394;10.414;2023-12-20T08:27:39;6.90;95.90
39519;DHT22;25200;53.394;10.414;2023-12-20T08:30:06;6.90;95.90
39519;DHT22;25200;53.394;10.414;2023-12-20T08:32:33;6.90;96.00
39519;DHT22;25200;53.394;10.414;2023-12-20T08:34:59;6.90;95.90
39519;DHT22;25200;53.394;10.414;2023-12-20T08:37:25;7.00;95.90
39519;DHT22;25200;53.394;10.414;2023-12-20T08:39:51;7.00;95.90
39519;DHT22;25200;53.394;10.414;2023-12-20T08:42:16;7.00;95.90
39519;DHT22;25200;53.394;10.414;2023-12-20T08:44:42;7.00;95.90
39519;DHT22;25200;53.394;10.414;2023-12-20T08:47:08;7.00;95.90
39519;DHT22;25200;53.394;10.414;2023-12-20T08:49:33;7.00;95.90
39519;DHT22;25200;53.394;10.414;2023-12-20T08:51:59;7.00;95.90
39519;DHT22;25200;53.394;10.414;2023-12-20T08:54:25;7.00;95.90
39519;DHT22;25200;53.394;10.414;2023-12-20T08:56:50;7.00;95.90
39519;DHT22;25200;53.394;10.414;2023-12-20T08:59:16;7.00;96.00
39519;DHT22;25200;53.394;10.414;2023-12-20T09:01:41;7.00;96.00
39519;DHT22;25200;53.394;10.414;2023-12-20T09:04:07;7.10;96.00
39519;DHT22;25200;53.394;10.414;2023-12-20T09:06:33;7.00;96.00
39519;DHT22;25200;53.394;10.414;2023-12-20T09:08:58;7.10;95.90
39519;DHT22;25200;53.394;10.414;2023-12-20T09:11:24;7.10;96.20
39519;DHT22;25200;53.394;10.414;2023-12-20T09:13:50;7.10;96.00
39519;DHT22;25200;53.394;10.414;2023-12-20T09:16:16;7.10;96.00
39519;DHT22;25200;53.394;10.414;2023-12-20T09:18:42;7.10;96.00
39519;DHT22;25200;53.394;10.414;2023-12-20T09:21:08;7.10;95.90
39519;DHT22;25200;53.394;10.414;2023-12-20T09:23:33;7.10;95.90
39519;DHT22;25200;53.394;10.414;2023-12-20T09:25:59;7.10;95.90
39519;DHT22;25200;53.394;10.414;2023-12-20T09:28:25;7.10;96.00
39519;DHT22;25200;53.394;10.414;2023-12-20T09:30:50;7.10;96.00
39519;DHT22;25200;53.394;10.414;2023-12-20T09:33:16;7.10;96.00
39519;DHT22;25200;53.394;10.414;2023-12-20T09:35:42;7.10;96.00
39519;DHT22;25200;53.394;10.414;2023-12-20T09:38:08;7.10;96.00
39519;DHT22;25200;53.394;10.414;2023-12-20T09:40:35;7.10;95.90
39519;DHT22;25200;53.394;10.414;2023-12-20T09:43:10;7.10;95.90
39519;DHT22;25200;53.394;10.414;2023-12-20T09:45:36;7.10;95.90
39519;DHT22;25200;53.394;10.414;2023-12-20T09:48:03;7.10;96.00
39519;DHT22;25200;53.394;10.414;2023-12-20T09:50:30;7.10;96.00
39519;DHT22;25200;53.394;10.414;2023-12-20T09:52:58;7.10;96.00
39519;DHT22;25200;53.394;10.414;2023-12-20T09:55:25;7.10;96.00
39519;DHT22;25200;53.394;10.414;2023-12-20T09:57:52;7.00;96.00
39519;DHT22;25200;53.394;10.414;2023-12-20T10:00:17;7.00;96.00
39519;DHT22;25200;53.394;10.414;2023-12-20T10:02:56;7.10;96.00
39519;DHT22;25200;53.394;10.414;2023-12-20T10:05:26;7.10;96.00
39519;DHT22;25200;53.394;10.414;2023-12-20T10:07:52;7.00;96.00
39519;DHT22;25200;53.394;10.414;2023-12-20T10:10:18;7.10;96.00
39519;DHT22;25200;53.394;10.414;2023-12-20T10:13:06;7.10;96.00
39519;DHT22;25200;53.394;10.414;2023-12-20T10:15:36;7.10;96.00
39519;DHT22;25200;53.394;10.414;2023-12-20T10:18:03;7.10;96.00
39519;DHT22;25200;53.394;10.414;2023-12-20T10:20:29;7.10;96.00
39519;DHT22;25200;53.394;10.414;2023-12-20T10:22:59;7.10;96.10
39519;DHT22;25200;53.394;10.414;2023-12-20T10:25:26;7.10;96.00
39519;DHT22;25200;53.394;10.414;2023-12-20T10:28:16;7.10;96.00
39519;DHT22;25200;53.394;10.414;2023-12-20T10:30:48;7.10;96.00
39519;DHT22;25200;53.394;10.414;2023-12-20T10:33:15;7.10;96.00
39519;DHT22;25200;53.394;10.414;2023-12-20T10:35:48;7.20;95.90
39519;DHT22;25200;53.394;10.414;2023-12-20T10:38:14;7.20;95.90
39519;DHT22;25200;53.394;10.414;2023-12-20T10:40:40;7.20;96.00
39519;DHT22;25200;53.394;10.414;2023-12-20T10:43:06;7.20;96.00
39519;DHT22;25200;53.394;10.414;2023-12-20T10:45:34;7.20;95.90
39519;DHT22;25200;53.394;10.414;2023-12-20T10:47:59;7.20;95.90
39519;DHT22;25200;53.394;10.414;2023-12-20T10:50:27;7.20;96.10
39519;DHT22;25200;53.394;10.414;2023-12-20T10:52:54;7.20;96.10
39519;DHT22;25200;53.394;10.414;2023-12-20T10:55:24;7.20;95.80
39519;DHT22;25200;53.394;10.414;2023-12-20T10:58:16;7.20;95.80
39519;DHT22;25200;53.394;10.414;2023-12-20T11:00:45;7.20;95.80
39519;DHT22;25200;53.394;10.414;2023-12-20T11:03:13;7.10;95.70
39519;DHT22;25200;53.394;10.414;2023-12-20T11:08:22;7.20;95.70
39519;DHT22;25200;53.394;10.414;2023-12-20T11:13:31;7.10;95.70
39519;DHT22;25200;53.394;10.414;2023-12-20T11:15:58;7.10;95.80
39519;DHT22;25200;53.394;10.414;2023-12-20T11:18:31;7.20;95.80
39519;DHT22;25200;53.394;10.414;2023-12-20T11:21:01;7.20;95.70
39519;DHT22;25200;53.394;10.414;2023-12-20T11:23:29;7.20;95.70
39519;DHT22;25200;53.394;10.414;2023-12-20T11:25:56;7.10;95.60
39519;DHT22;25200;53.394;10.414;2023-12-20T11:28:26;7.20;95.70
39519;DHT22;25200;53.394;10.414;2023-12-20T11:30:53;7.10;95.60
39519;DHT22;25200;53.394;10.414;2023-12-20T11:33:24;7.10;95.60
39519;DHT22;25200;53.394;10.414;2023-12-20T11:35:50;7.10;95.60
39519;DHT22;25200;53.394;10.414;2023-12-20T11:38:15;7.10;95.60
39519;DHT22;25200;53.394;10.414;2023-12-20T11:40:48;7.10;95.60
39519;DHT22;25200;53.394;10.414;2023-12-20T11:43:32;7.10;95.60
39519;DHT22;25200;53.394;10.414;2023-12-20T11:46:07;7.10;95.50
39519;DHT22;25200;53.394;10.414;2023-12-20T11:48:38;7.10;95.50
39519;DHT22;25200;53.394;10.414;2023-12-20T11:51:12;7.10;95.60
39519;DHT22;25200;53.394;10.414;2023-12-20T11:53:39;7.10;95.50
39519;DHT22;25200;53.394;10.414;2023-12-20T11:56:08;7.10;95.50
39519;DHT22;25200;53.394;10.414;2023-12-20T11:58:34;7.10;95.50
39519;DHT22;25200;53.394;10.414;2023-12-20T12:01:00;7.10;95.50
39519;DHT22;25200;53.394;10.414;2023-12-20T12:03:28;7.10;95.50
39519;DHT22;25200;53.394;10.414;2023-12-20T12:05:53;7.10;95.50
39519;DHT22;25200;53.394;10.414;2023-12-20T12:08:19;7.10;95.50
39519;DHT22;25200;53.394;10.414;2023-12-20T12:10:45;7.00;95.40
39519;DHT22;25200;53.394;10.414;2023-12-20T12:13:11;7.00;95.40
39519;DHT22;25200;53.394;10.414;2023-12-20T12:15:37;7.00;95.50
39519;DHT22;25200;53.394;10.414;2023-12-20T12:18:03;7.00;95.50
39519;DHT22;25200;53.394;10.414;2023-12-20T12:20:30;7.00;95.50
39519;DHT22;25200;53.394;10.414;2023-12-20T12:23:04;7.00;95.40
39519;DHT22;25200;53.394;10.414;2023-12-20T12:25:31;7.00;95.50
39519;DHT22;25200;53.394;10.414;2023-12-20T12:28:01;7.00;95.50
39519;DHT22;25200;53.394;10.414;2023-12-20T12:30:26;7.00;95.40
39519;DHT22;25200;53.394;10.414;2023-12-20T12:32:53;7.00;95.40
39519;DHT22;25200;53.394;10.414;2023-12-20T12:35:19;7.00;95.50
39519;DHT22;25200;53.394;10.414;2023-12-20T12:37:45;7.10;95.50
39519;DHT22;25200;53.394;10.414;2023-12-20T12:40:12;7.00;95.50
39519;DHT22;25200;53.394;10.414;2023-12-20T12:42:38;7.10;95.50
39519;DHT22;25200;53.394;10.414;2023-12-20T12:45:05;7.10;95.50
39519;DHT22;25200;53.394;10.414;2023-12-20T12:47:31;7.10;95.40
39519;DHT22;25200;53.394;10.414;2023-12-20T12:49:56;7.10;95.40
39519;DHT22;25200;53.394;10.414;2023-12-20T12:52:22;7.10;95.40
39519;DHT22;25200;53.394;10.414;2023-12-20T12:54:48;7.00;95.40
39519;DHT22;25200;53.394;10.414;2023-12-20T12:57:14;7.00;95.40
39519;DHT22;25200;53.394;10.414;2023-12-20T12:59:41;7.00;95.30
39519;DHT22;25200;53.394;10.414;2023-12-20T13:02:06;7.00;95.30
39519;DHT22;25200;53.394;10.414;2023-12-20T13:04:35;6.90;95.30
39519;DHT22;25200;53.394;10.414;2023-12-20T13:07:01;6.90;95.30
39519;DHT22;25200;53.394;10.414;2023-12-20T13:09:26;6.90;95.20
39519;DHT22;25200;53.394;10.414;2023-12-20T13:11:52;6.90;95.30
39519;DHT22;25200;53.394;10.414;2023-12-20T13:14:18;6.80;95.20
39519;DHT22;25200;53.394;10.414;2023-12-20T13:16:44;6.80;95.20
39519;DHT22;25200;53.394;10.414;2023-12-20T13:19:11;6.80;95.20
39519;DHT22;25200;53.394;10.414;2023-12-20T13:21:36;6.80;95.10
39519;DHT22;25200;53.394;10.414;2023-12-20T13:24:02;6.80;95.40
39519;DHT22;25200;53.394;10.414;2023-12-20T13:26:28;6.80;95.10
39519;DHT22;25200;53.394;10.414;2023-12-20T13:28:54;6.80;95.20
39519;DHT22;25200;53.394;10.414;2023-12-20T13:31:20;6.80;95.20
39519;DHT22;25200;53.394;10.414;2023-12-20T13:33:46;6.70;95.20
39519;DHT22;25200;53.394;10.414;2023-12-20T13:36:12;6.80;95.20
39519;DHT22;25200;53.394;10.414;2023-12-20T13:38:38;6.70;95.00
39519;DHT22;25200;53.394;10.414;2023-12-20T13:41:04;6.70;95.10
39519;DHT22;25200;53.394;10.414;2023-12-20T13:43:31;6.70;95.10
39519;DHT22;25200;53.394;10.414;2023-12-20T13:46:01;6.70;95.10
39519;DHT22;25200;53.394;10.414;2023-12-20T13:48:27;6.70;95.10
39519;DHT22;25200;53.394;10.414;2023-12-20T13:50:52;6.70;94.90
39519;DHT22;25200;53.394;10.414;2023-12-20T13:53:18;6.60;95.00
39519;DHT22;25200;53.394;10.414;2023-12-20T13:55:44;6.60;95.00
39519;DHT22;25200;53.394;10.414;2023-12-20T13:58:10;6.60;95.00
39519;DHT22;25200;53.394;10.414;2023-12-20T14:00:36;6.60;95.00
39519;DHT22;25200;53.394;10.414;2023-12-20T14:03:04;6.60;94.90
39519;DHT22;25200;53.394;10.414;2023-12-20T14:05:30;6.60;95.00
39519;DHT22;25200;53.394;10.414;2023-12-20T14:07:56;6.60;95.00
39519;DHT22;25200;53.394;10.414;2023-12-20T14:10:26;6.50;95.00
39519;DHT22;25200;53.394;10.414;2023-12-20T14:12:52;6.50;95.00
39519;DHT22;25200;53.394;10.414;2023-12-20T14:15:18;6.50;95.00
39519;DHT22;25200;53.394;10.414;2023-12-20T14:17:44;6.50;95.00
39519;DHT22;25200;53.394;10.414;2023-12-20T14:20:10;6.50;95.00
39519;DHT22;25200;53.394;10.414;2023-12-20T14:22:38;6.50;95.10
39519;DHT22;25200;53.394;10.414;2023-12-20T14:25:04;6.50;95.10
39519;DHT22;25200;53.394;10.414;2023-12-20T14:27:30;6.50;95.10
39519;DHT22;25200;53.394;10.414;2023-12-20T14:29:56;6.50;95.00
39519;DHT22;25200;53.394;10.414;2023-12-20T14:32:21;6.50;95.00
39519;DHT22;25200;53.394;10.414;2023-12-20T14:34:47;6.50;95.00
39519;DHT22;25200;53.394;10.414;2023-12-20T14:37:13;6.50;95.00
39519;DHT22;25200;53.394;10.414;2023-12-20T14:39:38;6.50;95.00
39519;DHT22;25200;53.394;10.414;2023-12-20T14:42:07;6.50;95.00
39519;DHT22;25200;53.394;10.414;2023-12-20T14:44:36;6.50;95.00
39519;DHT22;25200;53.394;10.414;2023-12-20T14:47:02;6.50;95.00
39519;DHT22;25200;53.394;10.414;2023-12-20T14:49:28;6.50;95.00
39519;DHT22;25200;53.394;10.414;2023-12-20T14:51:54;6.50;95.00
39519;DHT22;25200;53.394;10.414;2023-12-20T14:54:19;6.40;94.90
39519;DHT22;25200;53.394;10.414;2023-12-20T14:56:46;6.40;94.90
39519;DHT22;25200;53.394;10.414;2023-12-20T14:59:12;6.40;94.90
39519;DHT22;25200;53.394;10.414;2023-12-20T15:01:38;6.40;94.90
39519;DHT22;25200;53.394;10.414;2023-12-20T15:04:06;6.40;94.90
39519;DHT22;25200;53.394;10.414;2023-12-20T15:06:32;6.40;94.80
39519;DHT22;25200;53.394;10.414;2023-12-20T15:08:59;6.40;95.10
39519;DHT22;25200;53.394;10.414;2023-12-20T15:11:25;6.40;94.90
39519;DHT22;25200;53.394;10.414;2023-12-20T15:13:51;6.40;95.00
39519;DHT22;25200;53.394;10.414;2023-12-20T15:16:24;6.40;95.00
39519;DHT22;25200;53.394;10.414;2023-12-20T15:18:51;6.40;95.00
39519;DHT22;25200;53.394;10.414;2023-12-20T15:21:17;6.40;95.00
39519;DHT22;25200;53.394;10.414;2023-12-20T15:23:43;6.40;95.00
39519;DHT22;25200;53.394;10.414;2023-12-20T15:26:18;6.40;95.00
39519;DHT22;25200;53.394;10.414;2023-12-20T15:28:44;6.50;95.00
39519;DHT22;25200;53.394;10.414;2023-12-20T15:31:10;6.40;95.00